createdAt,value
2023-05-14T00:00:25.999Z,13.07
2023-05-14T00:05:28.592Z,12.99
2023-05-14T00:10:31.032Z,12.88
2023-05-14T00:15:34.501Z,12.76
2023-05-14T00:20:37.136Z,12.66
2023-05-14T00:25:39.826Z,12.51
2023-05-14T00:30:42.627Z,12.42
2023-05-14T00:35:45.410Z,12.29
2023-05-14T00:40:51.682Z,12.23
2023-05-14T00:45:56.205Z,12.18
2023-05-14T00:50:58.681Z,12.05
2023-05-14T00:56:03.647Z,12.07
2023-05-14T01:01:06.300Z,12.10
2023-05-14T01:06:56.751Z,12.04
2023-05-14T01:12:18.670Z,12.05
2023-05-14T01:17:23.518Z,12.09
2023-05-14T01:22:26.410Z,12.15
2023-05-14T01:27:35.028Z,12.23
2023-05-14T01:32:39.753Z,12.31
2023-05-14T01:37:44.361Z,12.38
2023-05-14T01:42:49.593Z,12.50
2023-05-14T01:47:53.013Z,12.64
2023-05-14T01:52:56.939Z,12.78
2023-05-14T01:57:59.722Z,13.19
2023-05-14T02:03:02.644Z,14.00
2023-05-14T02:08:05.387Z,14.67
2023-05-14T02:13:09.895Z,15.26
2023-05-14T02:18:12.907Z,15.71
2023-05-14T02:23:15.559Z,16.12
2023-05-14T02:28:18.404Z,16.30
2023-05-14T02:33:21.037Z,16.91
2023-05-14T02:38:23.977Z,17.45
2023-05-14T02:43:26.545Z,18.00
2023-05-14T02:48:29.022Z,18.24
2023-05-14T02:53:31.542Z,18.39
2023-05-14T02:58:34.530Z,18.95
2023-05-14T03:03:38.431Z,19.70
2023-05-14T03:08:41.943Z,20.40
2023-05-14T03:13:44.493Z,21.03
2023-05-14T03:18:47.006Z,21.62
2023-05-14T03:23:49.655Z,22.30
2023-05-14T03:28:54.322Z,22.80
2023-05-14T03:33:57.170Z,23.54
2023-05-14T03:38:59.801Z,24.22
2023-05-14T03:44:02.720Z,24.97
2023-05-14T03:49:05.608Z,25.35
2023-05-14T03:54:08.429Z,26.16
2023-05-14T03:59:11.101Z,26.67
2023-05-14T04:04:13.746Z,27.22
2023-05-14T04:09:16.313Z,27.51
2023-05-14T04:14:18.914Z,27.91
2023-05-14T04:19:21.772Z,28.68
2023-05-14T04:24:24.345Z,29.09
2023-05-14T04:29:26.905Z,29.52
2023-05-14T04:34:29.418Z,30.01
2023-05-14T04:39:32.071Z,30.49
2023-05-14T04:44:35.506Z,31.17
2023-05-14T04:49:38.040Z,31.39
2023-05-14T04:54:40.757Z,31.88
2023-05-14T04:59:43.411Z,32.16
2023-05-14T05:04:47.462Z,32.76
2023-05-14T05:09:50.076Z,32.55
2023-05-14T05:14:52.622Z,33.37
2023-05-14T05:19:55.533Z,33.94
2023-05-14T05:24:59.022Z,33.67
2023-05-14T05:30:05.016Z,34.14
2023-05-14T05:35:09.374Z,34.73
2023-05-14T05:40:14.322Z,35.09
2023-05-14T05:45:16.861Z,34.97
2023-05-14T05:50:20.073Z,35.26
2023-05-14T05:55:22.834Z,35.49
2023-05-14T06:00:26.042Z,35.79
2023-05-14T06:05:28.847Z,36.12
2023-05-14T06:10:31.535Z,36.22
2023-05-14T06:15:34.093Z,37.00
2023-05-14T06:20:36.764Z,36.58
2023-05-14T06:25:39.349Z,37.28
2023-05-14T06:30:42.193Z,37.09
2023-05-14T06:35:46.178Z,37.71
2023-05-14T06:40:48.703Z,37.77
2023-05-14T06:45:51.949Z,37.36
2023-05-14T06:50:54.589Z,37.46
2023-05-14T06:55:57.078Z,37.48
2023-05-14T07:01:00.336Z,37.51
2023-05-14T07:06:02.934Z,37.29
2023-05-14T07:11:05.617Z,37.31
2023-05-14T07:16:11.886Z,37.47
2023-05-14T07:21:14.348Z,37.08
2023-05-14T07:26:16.903Z,37.08
2023-05-14T07:31:19.419Z,37.47
2023-05-14T07:36:21.927Z,37.77
2023-05-14T07:41:24.510Z,36.88
2023-05-14T07:46:26.968Z,37.13
2023-05-14T07:51:29.594Z,37.09
2023-05-14T07:56:32.137Z,37.08
2023-05-14T08:01:34.710Z,37.30
2023-05-14T08:06:37.509Z,37.34
2023-05-14T08:11:40.077Z,37.57
2023-05-14T08:16:42.610Z,37.26
2023-05-14T08:21:45.290Z,37.48
2023-05-14T08:26:48.031Z,38.18
2023-05-14T08:31:51.512Z,37.59
2023-05-14T08:36:54.157Z,38.09
2023-05-14T08:41:58.250Z,37.04
2023-05-14T08:47:01.030Z,36.89
2023-05-14T08:52:04.245Z,37.46
2023-05-14T08:57:10.131Z,37.62
2023-05-14T09:02:17.209Z,37.17
2023-05-14T09:07:19.777Z,36.25
2023-05-14T09:12:22.777Z,34.97
2023-05-14T09:17:27.784Z,36.34
2023-05-14T09:22:33.460Z,36.66
2023-05-14T09:27:36.815Z,34.83
2023-05-14T09:32:47.578Z,34.01
2023-05-14T09:37:52.368Z,35.99
2023-05-14T09:42:55.227Z,35.77
2023-05-14T09:48:01.396Z,36.53
2023-05-14T09:53:04.684Z,35.35
2023-05-14T09:58:07.207Z,35.87
2023-05-14T10:03:13.733Z,35.38
2023-05-14T10:08:27.107Z,31.68
2023-05-14T10:13:37.661Z,31.08
2023-05-14T10:18:52.193Z,30.29
2023-05-14T10:23:54.789Z,31.18
2023-05-14T10:28:58.429Z,32.91
2023-05-14T10:34:00.928Z,33.36
2023-05-14T10:39:04.620Z,32.91
2023-05-14T10:44:10.356Z,32.87
2023-05-14T10:49:12.874Z,32.83
2023-05-14T10:54:17.185Z,32.41
2023-05-14T10:59:19.994Z,31.81
2023-05-14T11:04:25.640Z,31.49
2023-05-14T11:09:28.378Z,30.38
2023-05-14T11:14:30.943Z,29.09
2023-05-14T11:19:33.405Z,29.00
2023-05-14T11:24:35.947Z,28.98
2023-05-14T11:29:38.898Z,29.26
2023-05-14T11:34:41.851Z,29.36
2023-05-14T11:39:52.531Z,29.30
2023-05-14T11:44:55.122Z,29.40
2023-05-14T11:49:57.729Z,28.69
2023-05-14T11:55:00.394Z,28.68
2023-05-14T12:00:05.246Z,28.09
2023-05-14T12:05:11.867Z,28.13
2023-05-14T12:10:15.205Z,28.71
2023-05-14T12:15:18.508Z,28.84
2023-05-14T12:20:21.144Z,28.64
2023-05-14T12:25:26.369Z,28.49
2023-05-14T12:30:37.447Z,28.12
2023-05-14T12:35:40.025Z,27.80
2023-05-14T12:40:42.599Z,27.48
2023-05-14T12:45:45.105Z,27.23
2023-05-14T12:50:48.815Z,27.12
2023-05-14T12:55:51.369Z,27.05
2023-05-14T13:00:53.965Z,26.76
2023-05-14T13:05:56.682Z,26.85
2023-05-14T13:10:59.242Z,26.99
2023-05-14T13:16:01.673Z,27.12
2023-05-14T13:21:06.593Z,26.86
2023-05-14T13:26:10.073Z,26.31
2023-05-14T13:31:13.544Z,26.03
2023-05-14T13:36:16.688Z,25.98
2023-05-14T13:41:19.283Z,25.93
2023-05-14T13:46:21.961Z,25.86
2023-05-14T13:51:24.479Z,25.88
2023-05-14T13:56:27.072Z,25.75
2023-05-14T14:01:31.235Z,25.52
2023-05-14T14:06:33.792Z,25.35
2023-05-14T14:11:36.544Z,25.16
2023-05-14T14:16:39.350Z,25.04
2023-05-14T14:21:43.117Z,24.93
2023-05-14T14:26:45.617Z,24.84
2023-05-14T14:31:48.339Z,24.77
2023-05-14T14:36:51.068Z,24.66
2023-05-14T14:41:53.602Z,24.60
2023-05-14T14:46:56.143Z,24.56
2023-05-14T14:51:58.853Z,24.35
2023-05-14T14:57:01.424Z,24.24
2023-05-14T15:02:04.306Z,24.07
2023-05-14T15:07:06.836Z,23.91
2023-05-14T15:12:10.526Z,23.83
2023-05-14T15:17:13.038Z,23.72
2023-05-14T15:22:15.904Z,23.69
2023-05-14T15:27:18.537Z,23.61
2023-05-14T15:32:21.251Z,23.50
2023-05-14T15:37:27.152Z,23.44
2023-05-14T15:42:29.724Z,23.32
2023-05-14T15:47:32.899Z,23.12
2023-05-14T15:52:36.770Z,22.83
2023-05-14T15:57:39.459Z,22.64
2023-05-14T16:02:42.263Z,22.38
2023-05-14T16:07:44.929Z,22.20
2023-05-14T16:12:47.425Z,22.01
2023-05-14T16:17:50.065Z,21.87
2023-05-14T16:22:52.612Z,21.68
2023-05-14T16:27:55.172Z,21.44
2023-05-14T16:32:57.719Z,21.18
2023-05-14T16:38:00.257Z,20.96
2023-05-14T16:43:02.954Z,20.81
2023-05-14T16:48:06.445Z,20.65
2023-05-14T16:53:09.198Z,20.47
2023-05-14T16:58:11.630Z,20.25
2023-05-14T17:03:14.094Z,20.03
2023-05-14T17:08:16.781Z,19.96
2023-05-14T17:13:19.466Z,19.86
2023-05-14T17:18:22.063Z,19.79
2023-05-14T17:23:24.631Z,19.65
2023-05-14T17:28:28.768Z,19.49
2023-05-14T17:33:31.980Z,19.41
2023-05-14T17:38:35.082Z,19.29
2023-05-14T17:43:37.619Z,19.22
2023-05-14T17:48:40.111Z,19.18
2023-05-14T17:53:42.568Z,19.11
2023-05-14T17:58:46.213Z,19.06
2023-05-14T18:03:48.850Z,18.98
2023-05-14T18:08:51.505Z,18.95
2023-05-14T18:13:54.079Z,18.88
2023-05-14T18:18:56.807Z,18.89
2023-05-14T18:23:59.530Z,18.75
2023-05-14T18:29:02.122Z,18.65
2023-05-14T18:34:04.752Z,18.58
2023-05-14T18:39:07.397Z,18.54
2023-05-14T18:44:10.079Z,18.49
2023-05-14T18:49:12.572Z,18.35
2023-05-14T18:54:15.022Z,18.21
2023-05-14T18:59:17.577Z,18.15
2023-05-14T19:04:20.154Z,18.05
2023-05-14T19:09:23.152Z,17.98
2023-05-14T19:14:26.530Z,17.83
2023-05-14T19:19:29.306Z,17.76
2023-05-14T19:24:31.852Z,17.76
2023-05-14T19:29:34.508Z,17.71
2023-05-14T19:34:37.113Z,17.55
2023-05-14T19:39:39.646Z,17.52
2023-05-14T19:44:42.354Z,17.45
2023-05-14T19:49:44.807Z,17.40
2023-05-14T19:54:47.344Z,17.27
2023-05-14T19:59:49.996Z,17.10
2023-05-14T20:04:55.739Z,17.05
2023-05-14T20:09:58.238Z,16.89
2023-05-14T20:15:00.725Z,16.84
2023-05-14T20:20:03.754Z,16.68
2023-05-14T20:25:07.720Z,16.48
2023-05-14T20:30:10.786Z,16.31
2023-05-14T20:35:13.599Z,16.20
2023-05-14T20:40:16.145Z,16.12
2023-05-14T20:45:19.112Z,16.04
2023-05-14T20:50:22.846Z,16.00
2023-05-14T20:55:25.705Z,16.03
2023-05-14T21:00:28.480Z,15.95
2023-05-14T21:05:30.966Z,15.86
2023-05-14T21:10:33.448Z,15.75
2023-05-14T21:15:37.053Z,15.86
2023-05-14T21:20:40.539Z,16.17
2023-05-14T21:25:43.040Z,16.41
2023-05-14T21:30:46.112Z,16.56
2023-05-14T21:35:48.746Z,16.80
2023-05-14T21:40:51.599Z,17.09
2023-05-14T21:45:54.237Z,17.12
2023-05-14T21:50:56.651Z,17.15
2023-05-14T21:55:59.116Z,17.04
2023-05-14T22:01:01.563Z,17.06
2023-05-14T22:06:04.492Z,16.95
2023-05-14T22:11:06.910Z,16.80
2023-05-14T22:16:13.755Z,16.74
2023-05-14T22:21:16.859Z,16.58
2023-05-14T22:26:19.723Z,16.48
2023-05-14T22:31:22.227Z,16.38
2023-05-14T22:36:24.721Z,16.30
2023-05-14T22:41:27.298Z,16.35
2023-05-14T22:46:30.346Z,16.35
2023-05-14T22:51:33.031Z,16.42
2023-05-14T22:56:36.117Z,16.44
2023-05-14T23:01:39.247Z,16.45
2023-05-14T23:06:41.911Z,16.49
2023-05-14T23:11:44.478Z,16.53
2023-05-14T23:16:46.942Z,16.45
2023-05-14T23:21:49.452Z,16.38
2023-05-14T23:26:51.944Z,16.32
2023-05-14T23:31:54.600Z,16.27
2023-05-14T23:36:57.146Z,16.21
2023-05-14T23:41:59.725Z,16.21
2023-05-14T23:47:04.593Z,16.20
2023-05-14T23:52:07.495Z,16.15
2023-05-14T23:57:13.034Z,16.08
